Skip Navigation Links Skip Navigation Links

Current Weather

Phoenix Deer Valley, Phoenix, Ariz.

For information only: do not use for flight planning or navigation.
Latest weather
Observation time Thursday, January 27, 2022 9:53 PM MST
Local time Thursday, January 27, 2022 11:02 PM MST
Flight conditions Visual Meteorological Conditions
Winds
Wind direction Northeast (40°)
Wind speed 13 mph
Wind gusting to 20 mph
Visibility 10 mi.
Sky condition
Ceiling unlimited
Sky clear
Temperature 56°F
Dewpoint 10°F
Altimeter 30.26 in.Hg
Derived measurements
Relative humidity 16%
Density altitude 938 ft.
Sea-level pressure 30.24 in.Hg
Remarks
Fully automated report.
Automated weather observing station with precipitation discriminator.
METAR KDVT 280453Z AUTO 04011G17KT 10SM CLR 13/M12 A3026 RMK AO2 SLP239 T01331122

Settings

Location code

InnerDrive.Weather 4.0.6770.0 Release CLR 4.0.30319.42000
Copyright ©2018 Inner Drive Technology. All rights reserved. Portions Copyright ©1986-2018 David Braverman.

Find weather

Site navigation


Skip Navigation Links

Place info

Page info

PayPal - The safer, easier way to pay online!

Return home.

Copyright ©2022 Inner Drive Technology. Purveyors of fine, hand-crafted computer software. Page printed 2022-01-28T06:02:19 UTC.